Time;durP1;ratioP1;P1;durP2;ratioP2;P2;SDS_P1;SDS_P2;PMS_P1;PMS_P2;Temp;Humidity;BMP_temperature;BMP_pressure;BME280_temperature;BME280_humidity;BME280_pressure;Samples;Min_cycle;Max_cycle;Signal;HPM_P1;HPM_P2
2021/04/21 00:00:15;;;;;;;131.80;68.93;;;11.50;99.90;;;;;;5114900;28;20504;-77
2021/04/21 00:02:44;;;;;;;142.95;71.15;;;11.50;99.90;;;;;;5113028;28;20173;-76
2021/04/21 00:05:11;;;;;;;131.25;69.10;;;11.50;99.90;;;;;;5113835;28;20177;-76
2021/04/21 00:07:37;;;;;;;119.53;63.90;;;11.60;99.90;;;;;;5112292;28;20162;-77
2021/04/21 00:10:06;;;;;;;115.78;62.25;;;11.60;99.90;;;;;;5113423;28;20226;-77
2021/04/21 00:12:32;;;;;;;120.82;63.03;;;11.60;99.90;;;;;;5114631;28;20162;-77
2021/04/21 00:14:58;;;;;;;118.65;62.35;;;11.50;99.90;;;;;;5114764;28;20193;-77
2021/04/21 00:17:25;;;;;;;124.20;66.45;;;11.40;99.90;;;;;;5113018;28;20239;-78
2021/04/21 00:19:54;;;;;;;123.13;65.32;;;11.40;99.90;;;;;;5113458;28;20228;-78
2021/04/21 00:22:22;;;;;;;133.02;68.50;;;11.40;99.90;;;;;;5113404;28;20165;-78
2021/04/21 00:24:50;;;;;;;128.40;67.97;;;11.50;99.90;;;;;;5115435;28;20211;-78
2021/04/21 00:27:21;;;;;;;130.25;68.13;;;11.50;99.90;;;;;;5095943;28;20181;-77
2021/04/21 00:29:50;;;;;;;136.02;70.57;;;11.40;99.90;;;;;;5113205;28;20162;-78
2021/04/21 00:32:17;;;;;;;134.75;70.47;;;11.40;99.90;;;;;;5113153;28;20241;-78
2021/04/21 00:34:44;;;;;;;115.68;63.70;;;11.50;99.90;;;;;;5114466;28;20258;-78
2021/04/21 00:37:12;;;;;;;109.22;58.95;;;11.50;99.90;;;;;;5112655;28;20544;-78
2021/04/21 00:39:41;;;;;;;112.97;61.90;;;11.50;99.90;;;;;;5113141;28;20179;-78
2021/04/21 00:42:16;;;;;;;119.95;65.25;;;11.40;99.90;;;;;;5114435;28;20656;-78
2021/04/21 00:44:57;;;;;;;122.28;64.22;;;11.40;99.90;;;;;;5114223;28;20153;-78
2021/04/21 00:47:38;;;;;;;127.50;63.90;;;11.40;99.90;;;;;;5114162;28;20165;-78
2021/04/21 00:50:08;;;;;;;123.57;65.93;;;11.40;99.90;;;;;;5113066;28;20202;-78
2021/04/21 00:52:50;;;;;;;129.25;65.63;;;11.30;99.90;;;;;;5112952;28;20213;-78
2021/04/21 00:55:30;;;;;;;132.45;69.40;;;11.20;99.90;;;;;;5114099;28;20241;-78
2021/04/21 00:58:11;;;;;;;139.02;71.35;;;11.20;99.90;;;;;;5100399;28;20279;-78
2021/04/21 01:00:43;;;;;;;144.45;71.68;;;11.30;99.90;;;;;;5114025;28;20253;-78
2021/04/21 01:03:23;;;;;;;140.52;72.15;;;11.40;99.90;;;;;;5114251;28;20207;-78
2021/04/21 01:06:00;;;;;;;138.75;73.70;;;11.40;99.90;;;;;;5113889;28;20617;-78
2021/04/21 01:08:37;;;;;;;146.90;74.05;;;11.50;99.90;;;;;;5113930;28;20173;-78
2021/04/21 01:11:28;;;;;;;140.38;72.13;;;11.50;99.90;;;;;;5113969;28;20165;-78
2021/04/21 01:14:00;;;;;;;139.10;71.28;;;11.50;99.90;;;;;;5097939;28;20610;-78
2021/04/21 01:16:30;;;;;;;137.82;71.72;;;11.50;99.90;;;;;;5113700;28;20188;-78
2021/04/21 01:19:01;;;;;;;146.95;74.63;;;11.50;99.90;;;;;;5113703;28;20281;-78
2021/04/21 01:21:33;;;;;;;158.00;76.30;;;11.40;99.90;;;;;;5112649;28;20161;-78
2021/04/21 01:24:29;;;;;;;141.40;71.32;;;11.40;99.90;;;;;;5114181;28;20177;-78
2021/04/21 01:27:22;;;;;;;139.38;70.72;;;11.50;99.90;;;;;;5084401;28;20533;-78
2021/04/21 01:29:52;;;;;;;139.57;69.50;;;11.50;99.90;;;;;;5127817;27;20197;-78
2021/04/21 01:32:26;;;;;;;132.07;70.72;;;11.50;99.90;;;;;;5093092;28;20185;-78
2021/04/21 01:34:55;;;;;;;139.55;70.53;;;11.40;99.90;;;;;;5093238;28;20167;-78
2021/04/21 01:37:36;;;;;;;147.73;70.70;;;11.40;99.90;;;;;;5106068;28;20201;-78
2021/04/21 01:40:10;;;;;;;130.13;68.72;;;11.50;99.90;;;;;;5092156;28;20167;-78
2021/04/21 01:42:40;;;;;;;128.98;68.00;;;11.40;99.90;;;;;;5093064;28;20158;-78
2021/04/21 01:45:07;;;;;;;129.90;66.93;;;11.40;99.90;;;;;;5102155;28;20162;-78
2021/04/21 01:47:34;;;;;;;127.40;66.95;;;11.40;99.90;;;;;;5112922;28;20162;-78
2021/04/21 01:50:07;;;;;;;121.40;64.25;;;11.40;99.90;;;;;;5095307;28;20174;-78
2021/04/21 01:52:44;;;;;;;125.45;65.10;;;11.30;99.90;;;;;;5112347;28;20636;-77
2021/04/21 01:55:24;;;;;;;137.60;72.25;;;11.30;99.90;;;;;;5113250;28;20636;-77
2021/04/21 01:58:12;;;;;;;138.60;68.70;;;11.30;99.90;;;;;;5113092;28;20201;-78
2021/04/21 02:00:54;;;;;;;150.55;72.07;;;11.30;99.90;;;;;;5113501;28;20154;-78
2021/04/21 02:03:43;;;;;;;155.43;73.65;;;11.00;99.90;;;;;;5113723;28;20170;-78
2021/04/21 02:06:46;;;;;;;153.82;74.95;;;11.00;99.90;;;;;;5098500;28;20178;-78
2021/04/21 02:09:47;;;;;;;147.20;72.22;;;11.00;99.90;;;;;;5113157;28;20173;-77
2021/04/21 02:12:42;;;;;;;146.65;72.40;;;11.00;99.90;;;;;;5112042;28;20643;-79
2021/04/21 02:15:33;;;;;;;133.93;67.13;;;11.10;99.90;;;;;;5105225;28;20178;-78
2021/04/21 02:18:18;;;;;;;128.40;65.38;;;11.10;99.90;;;;;;5112517;28;20197;-78
2021/04/21 02:21:01;;;;;;;141.65;68.25;;;11.00;99.90;;;;;;5112239;28;20175;-78
2021/04/21 02:23:34;;;;;;;141.30;71.15;;;11.00;99.90;;;;;;5113372;28;20158;-78
2021/04/21 02:25:59;;;;;;;132.60;68.00;;;11.10;99.90;;;;;;5115757;28;20198;-78
2021/04/21 02:28:36;;;;;;;128.00;66.53;;;11.10;99.90;;;;;;5115320;28;20173;-79
2021/04/21 02:31:20;;;;;;;132.15;67.72;;;11.10;99.90;;;;;;5118453;28;20168;-78
2021/04/21 02:33:45;;;;;;;140.38;71.07;;;11.00;99.90;;;;;;5130084;28;20196;-78
2021/04/21 02:36:37;;;;;;;146.20;71.18;;;11.10;99.90;;;;;;5134184;28;20189;-77
2021/04/21 02:39:16;;;;;;;147.20;70.82;;;11.10;99.90;;;;;;5140456;28;20154;-79
2021/04/21 02:42:07;;;;;;;136.38;67.78;;;11.10;99.90;;;;;;5137143;28;20154;-78
2021/04/21 02:44:56;;;;;;;127.32;65.05;;;11.00;99.90;;;;;;5126773;28;20165;-78
2021/04/21 02:47:32;;;;;;;120.78;62.90;;;10.90;99.90;;;;;;5126001;28;20618;-78
2021/04/21 02:50:30;;;;;;;124.15;65.43;;;10.70;99.90;;;;;;5116757;28;20165;-78
2021/04/21 02:53:28;;;;;;;124.75;64.32;;;10.70;99.90;;;;;;5115413;28;20162;-78
2021/04/21 02:55:59;;;;;;;136.45;67.10;;;10.60;99.90;;;;;;5114542;28;20180;-78
2021/04/21 02:58:33;;;;;;;139.55;68.30;;;10.70;99.90;;;;;;5116754;28;20168;-78
2021/04/21 03:01:18;;;;;;;139.35;69.93;;;10.80;99.90;;;;;;5114946;28;20169;-78
2021/04/21 03:04:14;;;;;;;140.68;70.22;;;10.80;99.90;;;;;;5114749;28;20173;-78
2021/04/21 03:06:47;;;;;;;151.75;71.68;;;10.80;99.90;;;;;;5115185;28;20181;-78
2021/04/21 03:09:17;;;;;;;147.52;71.10;;;10.80;99.90;;;;;;5114204;28;20567;-78
2021/04/21 03:11:43;;;;;;;144.57;70.25;;;10.80;99.90;;;;;;5115904;28;20648;-78
2021/04/21 03:14:13;;;;;;;147.40;70.82;;;10.80;99.90;;;;;;5116116;28;20162;-78
2021/04/21 03:16:45;;;;;;;146.65;69.18;;;10.80;99.90;;;;;;5115496;28;20204;-78
2021/04/21 03:19:13;;;;;;;144.50;72.03;;;10.80;99.90;;;;;;5114356;28;20222;-78
2021/04/21 03:21:52;;;;;;;155.85;75.13;;;10.80;99.90;;;;;;5114815;28;20172;-78
2021/04/21 03:24:23;;;;;;;150.95;73.45;;;10.80;99.90;;;;;;5115835;28;20161;-78
2021/04/21 03:26:51;;;;;;;148.07;70.82;;;10.80;99.90;;;;;;5115919;28;20161;-78
2021/04/21 03:29:23;;;;;;;150.13;72.38;;;10.80;99.90;;;;;;5116095;28;20172;-78
2021/04/21 03:31:50;;;;;;;148.52;73.63;;;10.80;99.90;;;;;;5115033;28;20162;-78
2021/04/21 03:34:19;;;;;;;153.23;74.57;;;10.80;99.90;;;;;;5115721;28;20157;-77
2021/04/21 03:36:45;;;;;;;143.43;70.18;;;10.80;99.90;;;;;;5127650;27;20199;-78
2021/04/21 03:39:11;;;;;;;145.40;74.20;;;10.90;99.90;;;;;;5136208;27;20199;-78
2021/04/21 03:41:37;;;;;;;137.10;69.57;;;10.90;99.90;;;;;;5117537;27;20177;-77
2021/04/21 03:44:05;;;;;;;137.75;69.15;;;10.80;99.90;;;;;;5114350;28;20169;-79
2021/04/21 03:46:32;;;;;;;159.50;74.72;;;10.70;99.90;;;;;;5115718;28;20533;-78
2021/04/21 03:49:00;;;;;;;156.63;74.90;;;10.70;99.90;;;;;;5097169;28;20634;-78
2021/04/21 03:51:26;;;;;;;143.65;72.32;;;10.80;99.90;;;;;;5115060;28;20169;-78
2021/04/21 03:53:52;;;;;;;157.35;75.30;;;10.80;99.90;;;;;;5114061;28;20685;-78
2021/04/21 03:56:25;;;;;;;147.27;73.15;;;10.90;99.90;;;;;;5113927;28;20197;-78
2021/04/21 03:58:53;;;;;;;152.45;72.90;;;11.00;99.90;;;;;;5115341;28;20634;-79
2021/04/21 04:01:22;;;;;;;142.93;71.70;;;11.00;99.90;;;;;;5114768;28;20618;-78
2021/04/21 04:03:51;;;;;;;145.93;71.13;;;11.10;99.90;;;;;;5114906;28;20252;-78
2021/04/21 04:06:26;;;;;;;124.13;61.47;;;11.10;99.90;;;;;;5114875;28;20169;-78
2021/04/21 04:08:59;;;;;;;126.13;63.40;;;11.00;99.90;;;;;;5113652;28;20172;-78
2021/04/21 04:11:44;;;;;;;132.43;65.13;;;10.90;99.90;;;;;;5114800;28;20157;-78
2021/04/21 04:14:26;;;;;;;124.53;62.20;;;10.90;99.90;;;;;;5115017;28;20252;-78
2021/04/21 04:16:57;;;;;;;129.32;60.67;;;10.80;99.90;;;;;;5114822;28;20193;-77
2021/04/21 04:19:24;;;;;;;130.75;63.83;;;10.80;99.90;;;;;;5114617;28;20177;-78
2021/04/21 04:22:08;;;;;;;131.48;66.50;;;10.80;99.90;;;;;;5114514;28;20173;-78
2021/04/21 04:24:55;;;;;;;129.63;64.82;;;10.90;99.90;;;;;;5113521;28;20161;-78
2021/04/21 04:27:24;;;;;;;138.82;69.35;;;10.90;99.90;;;;;;5114441;28;20157;-78
2021/04/21 04:29:51;;;;;;;137.88;70.95;;;10.90;99.90;;;;;;5114471;28;20157;-78
2021/04/21 04:32:19;;;;;;;135.13;68.50;;;11.00;99.90;;;;;;5097927;28;20242;-77
2021/04/21 04:34:47;;;;;;;145.63;72.93;;;10.90;99.90;;;;;;5114256;28;20576;-78
2021/04/21 04:37:15;;;;;;;135.95;71.45;;;10.90;99.90;;;;;;5114432;28;20242;-78
2021/04/21 04:39:41;;;;;;;136.50;66.30;;;11.00;99.90;;;;;;5114194;28;20529;-78
2021/04/21 04:42:08;;;;;;;139.38;69.57;;;11.00;99.90;;;;;;5112635;28;20170;-78
2021/04/21 04:44:42;;;;;;;134.45;68.43;;;10.90;99.90;;;;;;5113173;28;20173;-78
2021/04/21 04:47:13;;;;;;;142.65;71.47;;;11.00;99.90;;;;;;5114311;28;20662;-78
2021/04/21 04:49:58;;;;;;;139.15;71.38;;;11.10;99.90;;;;;;5113945;28;20177;-78
2021/04/21 04:52:25;;;;;;;145.48;71.65;;;11.10;99.90;;;;;;5112747;28;20177;-78
2021/04/21 04:54:54;;;;;;;142.93;72.00;;;11.20;99.90;;;;;;5113041;28;20210;-78
2021/04/21 04:57:20;;;;;;;140.93;71.03;;;11.20;99.90;;;;;;5112727;28;20185;-78
2021/04/21 04:59:48;;;;;;;144.40;71.75;;;11.30;99.90;;;;;;5095745;28;20334;-78
2021/04/21 05:02:17;;;;;;;151.98;71.18;;;11.20;99.90;;;;;;5113709;28;20735;-78
2021/04/21 05:04:59;;;;;;;145.05;72.35;;;11.20;99.90;;;;;;5113896;28;20170;-78
2021/04/21 05:07:46;;;;;;;136.73;69.43;;;11.30;99.90;;;;;;5114408;28;20566;-78
2021/04/21 05:10:29;;;;;;;132.65;66.43;;;11.30;99.90;;;;;;5113924;28;20165;-78
2021/04/21 05:13:02;;;;;;;134.73;67.85;;;11.30;99.90;;;;;;5114021;28;20517;-78
2021/04/21 05:15:37;;;;;;;127.13;68.38;;;11.40;99.90;;;;;;5114298;28;20157;-78
2021/04/21 05:18:36;;;;;;;141.88;71.82;;;11.30;99.90;;;;;;5113921;28;20196;-77
2021/04/21 05:21:23;;;;;;;137.35;70.13;;;11.40;99.90;;;;;;5112534;28;20169;-78
2021/04/21 05:24:12;;;;;;;148.75;70.32;;;11.50;99.90;;;;;;5114223;28;20195;-78
2021/04/21 05:26:53;;;;;;;142.45;70.05;;;11.60;99.90;;;;;;5112869;28;20162;-78
2021/04/21 05:29:38;;;;;;;120.13;62.60;;;11.70;99.90;;;;;;5113506;28;20160;-78
2021/04/21 05:32:41;;;;;;;137.40;68.97;;;11.80;99.90;;;;;;5113720;28;20184;-78
2021/04/21 05:35:28;;;;;;;125.78;63.45;;;11.90;99.90;;;;;;5112180;28;20192;-78
2021/04/21 05:38:26;;;;;;;130.07;67.45;;;11.90;99.90;;;;;;5113257;28;20196;-78
2021/04/21 05:41:33;;;;;;;130.90;65.22;;;12.00;99.90;;;;;;5098419;28;20190;-78
2021/04/21 05:44:21;;;;;;;127.55;64.25;;;12.20;99.90;;;;;;5112784;28;20196;-77
2021/04/21 05:47:05;;;;;;;125.95;62.50;;;12.30;99.90;;;;;;5095306;28;20189;-77
2021/04/21 05:49:45;;;;;;;120.18;62.95;;;12.40;99.90;;;;;;5113336;28;20161;-77
2021/04/21 05:52:32;;;;;;;114.15;61.13;;;12.50;99.90;;;;;;5112571;28;20171;-78
2021/04/21 05:55:20;;;;;;;108.78;58.67;;;12.60;99.90;;;;;;5112033;28;20207;-78
2021/04/21 05:58:20;;;;;;;112.05;59.65;;;12.70;99.90;;;;;;5113394;28;20543;-78
2021/04/21 06:01:01;;;;;;;99.55;54.45;;;12.80;99.90;;;;;;5115456;28;20176;-78
2021/04/21 06:03:29;;;;;;;106.03;54.55;;;13.00;99.90;;;;;;5117026;28;20199;-77
2021/04/21 06:06:02;;;;;;;85.88;47.30;;;13.20;99.90;;;;;;5116073;28;20207;-78
2021/04/21 06:08:29;;;;;;;90.93;48.60;;;13.30;99.90;;;;;;5116244;28;20208;-78
2021/04/21 06:10:55;;;;;;;85.05;48.03;;;13.40;99.90;;;;;;5116869;27;20170;-78
2021/04/21 06:13:32;;;;;;;85.20;46.25;;;13.50;99.90;;;;;;5115925;28;20180;-78
2021/04/21 06:15:58;;;;;;;88.68;46.85;;;13.60;99.90;;;;;;5116059;28;20165;-78
2021/04/21 06:18:25;;;;;;;83.28;46.80;;;13.60;99.90;;;;;;5115895;28;20165;-78
2021/04/21 06:20:51;;;;;;;88.63;49.58;;;13.70;99.90;;;;;;5115514;28;20199;-77
2021/04/21 06:23:24;;;;;;;82.50;49.00;;;13.80;99.90;;;;;;5115471;28;20644;-78
2021/04/21 06:26:01;;;;;;;89.07;47.72;;;13.90;99.90;;;;;;5116810;28;20267;-77
2021/04/21 06:28:26;;;;;;;84.75;49.47;;;14.10;99.90;;;;;;5117027;28;20149;-77
2021/04/21 06:31:12;;;;;;;82.15;45.63;;;14.40;99.90;;;;;;5115463;28;20222;-76
2021/04/21 06:33:42;;;;;;;78.05;45.25;;;14.60;99.90;;;;;;5116223;28;20666;-76
2021/04/21 06:36:10;;;;;;;82.25;47.53;;;14.80;99.90;;;;;;5115751;28;20173;-77
2021/04/21 06:38:37;;;;;;;82.45;48.03;;;15.00;99.90;;;;;;5114813;28;20173;-77
2021/04/21 06:41:03;;;;;;;81.60;46.78;;;15.10;99.90;;;;;;5117019;28;20278;-76
2021/04/21 06:43:32;;;;;;;78.93;46.50;;;15.50;99.90;;;;;;5116501;28;20264;-76
2021/04/21 06:45:58;;;;;;;76.40;44.70;;;16.00;99.90;;;;;;5115134;28;20169;-77
2021/04/21 06:48:28;;;;;;;75.85;46.33;;;16.30;99.90;;;;;;5116457;28;20158;-78
2021/04/21 06:50:54;;;;;;;76.43;45.42;;;16.70;99.90;;;;;;5115170;28;20189;-77
2021/04/21 06:53:28;;;;;;;71.05;42.60;;;17.20;99.90;;;;;;5116832;27;20170;-76
2021/04/21 06:55:58;;;;;;;81.43;44.15;;;18.00;99.90;;;;;;5135902;27;20165;-77
2021/04/21 06:58:27;;;;;;;64.63;39.22;;;19.50;99.90;;;;;;5136402;27;20631;-78
2021/04/21 07:00:53;;;;;;;75.07;44.47;;;20.40;99.90;;;;;;5096014;28;20170;-78
2021/04/21 07:03:20;;;;;;;66.57;43.25;;;20.30;99.90;;;;;;5094607;28;20174;-77
2021/04/21 07:05:48;;;;;;;72.60;40.95;;;20.70;99.90;;;;;;5114695;28;20614;-78
2021/04/21 07:08:18;;;;;;;65.20;39.63;;;21.80;99.90;;;;;;5116021;27;20188;-78
2021/04/21 07:10:53;;;;;;;57.10;37.65;;;23.00;99.90;;;;;;5114990;28;20256;-77
2021/04/21 07:13:25;;;;;;;54.30;36.40;;;23.60;99.90;;;;;;5114023;28;20165;-77
2021/04/21 07:16:14;;;;;;;55.20;37.30;;;23.70;99.90;;;;;;5116421;28;20166;-78
2021/04/21 07:18:42;;;;;;;56.72;35.17;;;24.60;98.20;;;;;;5116088;28;20238;-77
2021/04/21 07:21:09;;;;;;;59.80;36.17;;;25.30;95.10;;;;;;5116117;27;20687;-78
2021/04/21 07:23:38;;;;;;;47.78;32.08;;;26.10;94.10;;;;;;5116253;28;20157;-78
2021/04/21 07:26:04;;;;;;;49.47;33.13;;;24.70;93.70;;;;;;5114850;28;20532;-77
2021/04/21 07:28:30;;;;;;;48.85;31.42;;;24.90;93.30;;;;;;5114512;28;20268;-78
2021/04/21 07:30:58;;;;;;;46.75;29.02;;;24.40;92.50;;;;;;5116054;28;20169;-77
2021/04/21 07:33:39;;;;;;;35.20;26.30;;;23.90;91.00;;;;;;5115692;28;20208;-77
2021/04/21 07:36:13;;;;;;;32.15;24.33;;;24.80;91.50;;;;;;5115773;28;20215;-76
2021/04/21 07:38:43;;;;;;;53.95;25.70;;;25.10;87.20;;;;;;5115450;28;20174;-77
2021/04/21 07:41:09;;;;;;;37.20;25.27;;;25.90;87.10;;;;;;5114507;28;20621;-77
2021/04/21 07:43:41;;;;;;;27.10;22.45;;;27.10;85.40;;;;;;5097282;28;20268;-78
2021/04/21 07:46:16;;;;;;;40.13;21.48;;;27.30;81.70;;;;;;5115490;28;20165;-77
2021/04/21 07:48:43;;;;;;;27.98;20.98;;;27.30;78.10;;;;;;5114010;28;20632;-77
2021/04/21 07:51:15;;;;;;;33.20;21.88;;;26.80;77.70;;;;;;5115132;28;20170;-76
2021/04/21 07:53:58;;;;;;;33.15;20.25;;;27.20;77.50;;;;;;5115144;28;20196;-77
2021/04/21 07:56:33;;;;;;;32.00;21.58;;;27.10;76.20;;;;;;5115592;28;20196;-77
2021/04/21 07:59:31;;;;;;;28.60;19.98;;;27.40;75.40;;;;;;5115145;27;20164;-77
2021/04/21 08:02:10;;;;;;;25.95;19.15;;;27.80;75.00;;;;;;5114060;28;20193;-77
2021/04/21 08:04:55;;;;;;;32.78;20.55;;;27.20;73.10;;;;;;5114069;28;20606;-77
2021/04/21 08:07:34;;;;;;;29.58;19.83;;;26.40;73.90;;;;;;5115421;28;20153;-77
2021/04/21 08:10:01;;;;;;;35.17;17.95;;;27.30;72.70;;;;;;5115046;28;20165;-79
2021/04/21 08:12:31;;;;;;;27.38;17.77;;;28.90;71.40;;;;;;5113731;28;20177;-77
2021/04/21 08:15:16;;;;;;;28.63;18.40;;;29.10;69.00;;;;;;5113678;28;20496;-77
2021/04/21 08:18:05;;;;;;;29.48;20.42;;;27.20;71.90;;;;;;5108413;28;20606;-76
2021/04/21 08:20:33;;;;;;;39.80;20.95;;;26.20;72.50;;;;;;5110463;28;20177;-77
2021/04/21 08:23:01;;;;;;;38.78;20.85;;;26.20;73.10;;;;;;5096801;28;20174;-76
2021/04/21 08:25:27;;;;;;;32.08;23.30;;;27.50;73.90;;;;;;5114238;28;20610;-76
2021/04/21 08:27:53;;;;;;;33.17;22.30;;;28.00;73.60;;;;;;5114399;28;20174;-78
2021/04/21 08:30:19;;;;;;;26.60;20.98;;;29.60;70.80;;;;;;5102286;28;20209;-76
2021/04/21 08:32:44;;;;;;;34.33;22.00;;;30.50;69.40;;;;;;5112134;28;20646;-77
2021/04/21 08:35:12;;;;;;;36.30;20.40;;;31.20;67.10;;;;;;5114320;28;20218;-77
2021/04/21 08:37:38;;;;;;;35.60;21.27;;;31.70;66.70;;;;;;5113370;28;20699;-76
2021/04/21 08:40:05;;;;;;;27.65;20.80;;;32.40;65.80;;;;;;5113451;28;20173;-76
2021/04/21 08:42:31;;;;;;;29.92;20.98;;;31.90;66.60;;;;;;5110785;28;20239;-76
2021/04/21 08:44:57;;;;;;;33.65;21.15;;;31.60;65.40;;;;;;5114258;28;20597;-76
2021/04/21 08:47:25;;;;;;;25.10;19.27;;;31.70;64.80;;;;;;5114046;28;20600;-76
2021/04/21 08:49:54;;;;;;;38.38;21.38;;;28.70;66.20;;;;;;5113949;28;20642;-77
2021/04/21 08:52:22;;;;;;;33.00;23.55;;;29.30;67.90;;;;;;5114201;28;20303;-78
2021/04/21 08:54:54;;;;;;;33.47;22.20;;;30.30;67.00;;;;;;5112958;28;20534;-77
2021/04/21 08:57:21;;;;;;;35.78;22.48;;;30.50;66.20;;;;;;5114401;28;20273;-77
2021/04/21 08:59:47;;;;;;;33.33;24.27;;;31.40;65.80;;;;;;5113791;28;20161;-76
2021/04/21 09:02:15;;;;;;;33.67;25.00;;;31.10;65.90;;;;;;5113472;28;20625;-77
2021/04/21 09:04:41;;;;;;;33.60;24.90;;;30.70;67.70;;;;;;5105819;28;20172;-77
2021/04/21 09:07:07;;;;;;;30.15;24.33;;;30.70;68.50;;;;;;5115044;28;20632;-78
2021/04/21 09:09:34;;;;;;;37.08;24.73;;;30.60;68.70;;;;;;5119571;28;20169;-78
2021/04/21 09:12:01;;;;;;;31.42;24.45;;;32.00;66.20;;;;;;5123333;28;20174;-77
2021/04/21 09:14:28;;;;;;;33.13;23.73;;;33.30;63.20;;;;;;5127987;28;20183;-78
2021/04/21 09:16:54;;;;;;;27.05;22.90;;;32.80;62.90;;;;;;5120554;28;20193;-77
2021/04/21 09:19:20;;;;;;;33.35;22.95;;;31.60;64.10;;;;;;5115943;28;20269;-76
2021/04/21 09:21:45;;;;;;;30.65;23.45;;;30.40;66.50;;;;;;5096694;28;20507;-76
2021/04/21 09:24:34;;;;;;;29.73;23.30;;;31.00;67.20;;;;;;5116160;28;20230;-77
2021/04/21 09:27:26;;;;;;;33.03;20.35;;;32.70;64.10;;;;;;5114583;28;20235;-78
2021/04/21 09:30:11;;;;;;;35.88;21.25;;;33.60;63.30;;;;;;5092730;28;20174;-77
2021/04/21 09:32:48;;;;;;;27.60;19.42;;;32.10;62.10;;;;;;5103755;28;20193;-77
2021/04/21 09:35:19;;;;;;;31.88;20.38;;;30.90;62.20;;;;;;5113434;28;20722;-77
2021/04/21 09:37:45;;;;;;;27.70;18.55;;;30.30;65.30;;;;;;5099751;28;20591;-76
2021/04/21 09:40:11;;;;;;;26.55;19.67;;;29.00;65.90;;;;;;5117707;28;20173;-77
2021/04/21 09:42:38;;;;;;;25.60;19.20;;;29.60;66.50;;;;;;5116477;28;20169;-77
2021/04/21 09:45:06;;;;;;;26.02;19.85;;;31.60;65.00;;;;;;5117757;28;20173;-77
2021/04/21 09:47:33;;;;;;;24.95;19.27;;;32.90;63.40;;;;;;5117904;28;20173;-77
2021/04/21 09:49:59;;;;;;;30.40;19.23;;;33.20;61.70;;;;;;5117320;28;20636;-77
2021/04/21 09:52:25;;;;;;;20.15;17.80;;;33.20;61.40;;;;;;5118064;28;20200;-77
2021/04/21 09:54:51;;;;;;;31.50;19.40;;;33.90;61.30;;;;;;5117165;28;20180;-77
2021/04/21 09:57:31;;;;;;;31.88;19.88;;;34.20;59.70;;;;;;5099428;28;20334;-78
2021/04/21 10:00:02;;;;;;;19.27;16.85;;;34.00;60.90;;;;;;5117697;27;20153;-77
2021/04/21 10:02:33;;;;;;;26.02;19.65;;;34.50;61.80;;;;;;5117270;27;20303;-77
2021/04/21 10:05:37;;;;;;;29.08;20.08;;;31.20;62.00;;;;;;5116998;28;20625;-77
2021/04/21 10:08:24;;;;;;;36.08;17.60;;;31.00;64.80;;;;;;5110833;28;20180;-77
2021/04/21 10:11:02;;;;;;;26.20;18.42;;;31.40;63.10;;;;;;5117485;28;20210;-77
2021/04/21 10:13:47;;;;;;;26.40;18.05;;;32.10;63.10;;;;;;5115678;27;20172;-76
2021/04/21 10:16:13;;;;;;;22.50;18.38;;;31.50;63.80;;;;;;5114881;28;20165;-77
2021/04/21 10:18:41;;;;;;;22.20;18.45;;;31.20;64.50;;;;;;5109623;28;20235;-80
2021/04/21 10:21:07;;;;;;;24.65;19.00;;;32.10;61.90;;;;;;5110858;28;20516;-78
2021/04/21 10:23:33;;;;;;;18.65;16.60;;;31.20;64.40;;;;;;5115251;28;20168;-77
2021/04/21 10:26:04;;;;;;;29.05;17.73;;;30.80;65.20;;;;;;5096987;28;20536;-78
2021/04/21 10:28:31;;;;;;;23.98;16.40;;;31.60;62.70;;;;;;5114745;28;20177;-75
2021/04/21 10:30:57;;;;;;;23.08;16.40;;;31.20;63.20;;;;;;5116527;28;20174;-77
2021/04/21 10:33:25;;;;;;;23.17;16.58;;;30.90;63.70;;;;;;5117031;28;20192;-77
2021/04/21 10:35:51;;;;;;;20.63;17.30;;;31.10;63.20;;;;;;5114711;28;20170;-78
2021/04/21 10:38:22;;;;;;;18.45;16.55;;;32.20;62.50;;;;;;5116434;28;20319;-78
2021/04/21 10:40:47;;;;;;;26.00;16.70;;;32.80;61.10;;;;;;5116811;28;20206;-78
2021/04/21 10:43:13;;;;;;;25.20;18.45;;;32.90;62.10;;;;;;5115106;28;20173;-78
2021/04/21 10:45:49;;;;;;;25.80;17.58;;;32.10;61.20;;;;;;5116333;28;20172;-76
2021/04/21 10:48:41;;;;;;;24.25;17.75;;;31.80;62.10;;;;;;5116486;28;20173;-76
2021/04/21 10:51:37;;;;;;;19.63;17.63;;;31.60;63.20;;;;;;5116213;28;20232;-76
2021/04/21 10:54:07;;;;;;;21.00;18.00;;;28.30;65.10;;;;;;5116610;28;20169;-76
2021/04/21 10:56:34;;;;;;;29.27;19.65;;;27.60;69.00;;;;;;5114864;28;20197;-75
2021/04/21 10:59:02;;;;;;;25.05;20.23;;;30.00;67.70;;;;;;5116543;28;20489;-75
2021/04/21 11:01:33;;;;;;;24.27;20.70;;;30.00;65.00;;;;;;5115028;28;20170;-75
2021/04/21 11:03:59;;;;;;;22.85;19.27;;;28.70;65.80;;;;;;5114594;28;20177;-76
2021/04/21 11:06:45;;;;;;;28.83;21.65;;;28.40;66.50;;;;;;5115841;28;20222;-76
2021/04/21 11:09:12;;;;;;;26.88;20.65;;;30.10;65.80;;;;;;5114868;28;20180;-76
2021/04/21 11:11:46;;;;;;;22.60;19.85;;;31.50;62.80;;;;;;5114977;28;20172;-74
2021/04/21 11:14:34;;;;;;;25.17;19.75;;;30.40;63.00;;;;;;5114738;28;20169;-75
2021/04/21 11:17:12;;;;;;;25.65;19.23;;;30.40;63.80;;;;;;5113847;28;20231;-75
2021/04/21 11:19:41;;;;;;;24.17;19.55;;;31.20;62.70;;;;;;5116022;28;20562;-75
2021/04/21 11:22:15;;;;;;;27.58;22.40;;;32.10;61.20;;;;;;5114825;28;20174;-75
2021/04/21 11:24:41;;;;;;;24.50;20.60;;;31.70;60.10;;;;;;5112195;28;20170;-75
2021/04/21 11:27:44;;;;;;;21.98;19.55;;;31.90;61.80;;;;;;5115547;28;20636;-75
2021/04/21 11:30:52;;;;;;;30.88;21.17;;;32.50;59.50;;;;;;5116265;28;20164;-75
2021/04/21 11:33:53;;;;;;;25.80;21.48;;;31.50;60.80;;;;;;5050892;28;20187;-74
2021/04/21 11:36:51;;;;;;;25.00;20.25;;;31.50;60.60;;;;;;5095336;28;20154;-74
2021/04/21 11:39:48;;;;;;;25.17;19.05;;;31.60;59.30;;;;;;5095411;28;20162;-74
2021/04/21 11:42:20;;;;;;;21.52;19.05;;;33.30;59.40;;;;;;5095328;28;20150;-74
2021/04/21 11:44:58;;;;;;;20.55;17.15;;;33.60;57.60;;;;;;5110604;28;20180;-74
2021/04/21 11:47:45;;;;;;;24.80;19.85;;;32.90;60.70;;;;;;5115262;28;20207;-76
2021/04/21 11:50:16;;;;;;;27.50;20.08;;;32.60;59.10;;;;;;5115431;28;20165;-75
2021/04/21 11:52:44;;;;;;;26.55;19.80;;;32.70;59.30;;;;;;5115342;28;20203;-77
2021/04/21 11:55:44;;;;;;;26.90;19.95;;;31.20;62.20;;;;;;5114779;28;20169;-80
2021/04/21 11:58:12;;;;;;;22.67;20.23;;;27.60;65.50;;;;;;5104892;28;20214;-90
2021/04/21 12:00:42;;;;;;;23.70;21.15;;;28.30;64.10;;;;;;5116721;27;20551;-88
2021/04/21 12:03:19;;;;;;;23.90;21.33;;;28.30;65.20;;;;;;5116685;28;20196;-88
2021/04/21 12:05:47;;;;;;;22.15;19.73;;;26.40;66.50;;;;;;5117247;28;20162;-92
2021/04/21 12:08:17;;;;;;;28.48;22.70;;;26.40;71.60;;;;;;5116825;28;20177;-92
2021/04/21 12:10:44;;;;;;;29.35;23.15;;;27.20;68.60;;;;;;5117964;28;20168;-92
2021/04/21 12:13:25;;;;;;;31.92;22.58;;;28.80;68.00;;;;;;5116728;28;20162;-93
2021/04/21 12:16:05;;;;;;;27.02;23.15;;;27.60;65.00;;;;;;5115505;28;20249;-91
2021/04/21 12:18:52;;;;;;;30.55;24.50;;;28.10;66.10;;;;;;5116157;28;20195;-93
2021/04/21 12:21:18;;;;;;;32.47;24.63;;;27.90;66.30;;;;;;5115902;28;20249;-91
2021/04/21 12:23:45;;;;;;;27.25;23.30;;;27.30;68.80;;;;;;5115730;28;20253;-93
2021/04/21 12:26:25;;;;;;;26.80;23.10;;;26.70;69.30;;;;;;5115561;28;20262;-92
2021/04/21 12:28:53;;;;;;;33.15;24.55;;;26.30;70.10;;;;;;5115736;28;20165;-94
2021/04/21 12:31:21;;;;;;;30.67;25.08;;;25.60;73.40;;;;;;5117045;28;20214;-92
2021/04/21 12:33:47;;;;;;;32.45;24.63;;;24.60;73.80;;;;;;5115313;28;20193;-93
2021/04/21 12:36:13;;;;;;;27.77;24.30;;;24.20;74.80;;;;;;5115745;28;20252;-94
2021/04/21 12:38:40;;;;;;;37.30;24.38;;;24.40;74.60;;;;;;5115289;28;20224;-91
2021/04/21 12:41:17;;;;;;;36.63;25.70;;;24.50;73.60;;;;;;5116025;28;20165;-90
2021/04/21 12:43:43;;;;;;;32.97;23.33;;;24.00;74.30;;;;;;5115125;28;20168;-92
2021/04/21 12:46:22;;;;;;;34.22;25.90;;;22.80;76.10;;;;;;5115567;28;20158;-93
2021/04/21 12:48:54;;;;;;;35.20;26.70;;;22.90;79.60;;;;;;5116510;28;20157;-92
2021/04/21 12:51:23;;;;;;;35.38;26.92;;;22.80;80.00;;;;;;5114592;28;20183;-92
2021/04/21 12:53:50;;;;;;;29.73;24.58;;;22.70;79.60;;;;;;5114198;28;20169;-91
2021/04/21 12:56:16;;;;;;;33.47;24.85;;;22.30;78.20;;;;;;5116285;28;20208;-91
2021/04/21 12:58:45;;;;;;;29.77;23.48;;;22.30;79.80;;;;;;5115575;28;20261;-91